This is the latest recevied weather packets stored in our database for station/object N9JXN-13. If no packets are shown the sender has not sent any weather packets the latest 10 day(s).
| Time | Temp. | Humidity | Pressure | Rain* | Wind** | Luminosity | Snow |
|---|---|---|---|---|---|---|---|
| 1777872261 | 15° C | 64% | 1005.7 hPa | 0 mm | - | 0 W/m² | - |
| 1777869861 | 14.44° C | 67% | 1005.7 hPa | 0 mm | - | 0 W/m² | - |
| 1777867760 | 14.44° C | 68% | 1005.9 hPa | 0 mm | - | 0 W/m² | - |
| 1777865661 | 15.56° C | 65% | 1006.1 hPa | 0 mm | - | 0 W/m² | - |
| 1777862960 | 15.56° C | 64% | 1006.2 hPa | 0 mm | - | 0 W/m² | - |
| 1777860261 | 16.67° C | 60% | 1006.2 hPa | 0 mm | - | 0 W/m² | - |
| 1777859961 | 16.67° C | 60% | 1006.1 hPa | 0 mm | - | 0 W/m² | - |
| 1777854561 | 18.89° C | 50% | 1005.7 hPa | 0 mm | - | 11 W/m² | - |
| 1777853662 | 18.89° C | 50% | 1005.9 hPa | 0 mm | - | 18 W/m² | - |
| 1777853360 | 19.44° C | 49% | 1005.9 hPa | 0 mm | - | 19 W/m² | - |
| 1777851561 | 19.44° C | 48% | 1006.1 hPa | 0 mm | - | 33 W/m² | - |
| 1777851261 | 20° C | 47% | 1006 hPa | 0 mm | - | 35 W/m² | - |
| 1777846162 | 20.56° C | 43% | 1006.4 hPa | 0 mm | - | 107 W/m² | - |
| 1777844361 | 20° C | 43% | 1006.5 hPa | 0 mm | - | 141 W/m² | - |
| 1777844061 | 20° C | 42% | 1006.5 hPa | 0 mm | - | 109 W/m² | - |
| 1777843460 | 20.56° C | 41% | 1006.6 hPa | 0 mm | - | 153 W/m² | - |
| 1777840161 | 20° C | 41% | 1007.7 hPa | 0 mm | - | 373 W/m² | - |
| 1777837760 | 20° C | 39% | 1008.4 hPa | 0 mm | - | 844 W/m² | - |
| 1777836861 | 19.44° C | 41% | 1008.7 hPa | 0 mm | - | 932 W/m² | - |
| 1777835361 | 20° C | 41% | 1009 hPa | 0 mm | - | 350 W/m² | - |
| 1777834161 | 18.89° C | 43% | 1009.2 hPa | 0 mm | - | 870 W/m² | - |
| 1777830561 | 14.44° C | 64% | 1010.8 hPa | 0 mm | - | 418 W/m² | - |
| 1777829361 | 13.33° C | 66% | 1011.7 hPa | 0 mm | - | 137 W/m² | - |
| 1777827260 | 12.22° C | 70% | 1012.7 hPa | 0.25 mm | - | 127 W/m² | - |
| 1777826361 | 11.67° C | 69% | 1012.8 hPa | 0.25 mm | - | 83 W/m² | - |
* Rain latest hour (hover to see other rain measurements)
** Current wind speed in m/s (hover to see current wind gust speed)